Latest Coastal Weather Observations for Strahan

IDT60701

Issued at 4:25 am EST Thursday 2 October 2014 (issued every 10 minutes, with the page automatically refreshed every 10 minutes)

About coastal observations | Map of coastal stations | Coastal observations for TAS | Marine services | Other Formats
Station Details ID: 097072 Name: STRAHAN AERODROME Lat: -42.16 Lon: 145.29 Height: 21.0 m
Data from the previous 72 hours. | See also: Recent months at Strahan
Date/Time
EST
Temp

°C
Wind Pressure Rain
since 9am
mm
Weather Cloud Vis
km
Sea
Height
m
Swell
Dir
 
Speed
knots
Gust
knots
hPa Trend Height
m
Period
s
Dir
02/04:13am 8.4 W 16 24 1016.7 - 1.2 - Partly cloudy 5 - - - -
02/04:03am 8.8 W 15 25 1016.6 - 1.2 - Partly cloudy 7 - - - -
02/04:00am 9.0 W 14 22 1016.6 - 1.2 - Partly cloudy 8 - - - -
02/03:30am 8.8 W 15 21 1016.6 - 1.2 - Partly cloudy 10 - - - -
02/03:09am 8.7 W 16 26 1016.7 - 1.2 - Partly cloudy 10 - - - -
02/03:00am 8.8 W 16 21 1016.6 - 1.2 - Cloudy 10 - - - -
02/02:30am 9.0 W 16 23 1016.6 - 1.2 - Partly cloudy 10 - - - -
02/02:00am 8.8 WNW 16 24 1016.7 - 1.2 - Partly cloudy 10 - - - -
02/01:30am 8.6 W 16 23 1017.0 - 1.2 - Partly cloudy 10 - - - -
02/01:00am 8.9 W 15 20 1017.2 - 1.2 - Partly cloudy 10 - - - -
02/12:30am 8.4 W 17 25 1017.3 - 1.2 - - 10 - - - -
02/12:19am 8.5 WNW 14 24 1017.4 - 1.2 - Partly cloudy 10 - - - -
02/12:00am 8.3 W 14 24 1017.6 - 1.2 Rain Mostly cloudy 4 - - - -
 
Date/Time
EST
Temp

°C
Wind Pressure Rain
since 9am
mm
Weather Cloud Vis
km
Sea
Height
m
Swell
Dir
 
Speed
knots
Gust
knots
hPa Trend Height
m
Period
s
Dir
01/11:58pm 8.7 W 12 23 1017.6 - 1.0 - Partly cloudy 5 - - - -
01/11:32pm 8.1 W 16 26 1017.8 - 1.0 - Partly cloudy 10 - - - -
01/11:30pm 8.2 W 18 26 1017.8 - 1.0 - Partly cloudy 10 - - - -
01/11:20pm 8.5 WNW 15 25 1017.9 - 1.0 - Partly cloudy 10 - - - -
01/11:15pm 8.5 WNW 12 17 1017.8 - 1.0 - Partly cloudy 10 - - - -
01/11:10pm 8.3 WNW 15 25 1017.9 - 1.0 - Partly cloudy 7 - - - -
01/11:00pm 8.2 W 18 25 1018.0 - 1.0 - Partly cloudy 3 - - - -
01/10:52pm 8.3 W 15 26 1018.1 - 0.8 - Partly cloudy 5 - - - -
01/10:30pm 8.7 W 14 19 1018.1 - 0.8 - Partly cloudy 10 - - - -
01/10:11pm 8.8 WNW 13 22 1018.2 - 0.8 - Partly cloudy 10 - - - -
01/10:00pm 8.8 WNW 14 21 1018.2 - 0.8 - Partly cloudy 5 - - - -
01/09:52pm 8.9 WNW 16 24 1018.3 - 0.8 - Partly cloudy 5 - - - -
01/09:30pm 8.9 WNW 14 20 1018.2 - 0.6 - Partly cloudy 10 - - - -
01/09:00pm 8.9 WNW 14 17 1018.2 - 0.6 Recent precip. Cloudy 10 - - - -
01/08:42pm 8.6 WNW 13 21 1018.4 - 0.6 - Partly cloudy 10 - - - -
01/08:30pm 8.4 W 16 24 1018.3 - 0.6 - Partly cloudy 5 - - - -
01/08:15pm 8.9 NW 17 24 1018.4 - 0.6 - Partly cloudy 5 - - - -
01/08:00pm 9.0 WNW 12 16 1018.4 - 0.2 - Partly cloudy 9 - - - -
01/07:30pm 8.8 WNW 14 19 1018.4 - 0.2 - Partly cloudy 9 - - - -
01/07:26pm 8.8 WNW 15 21 1018.4 - 0.2 - Partly cloudy 9 - - - -
01/07:06pm 9.2 WNW 16 21 1018.4 - 0.0 - Partly cloudy 5 - - - -
01/07:00pm 9.3 NW 15 21 1018.3 - 0.0 - Partly cloudy 10 - - - -
01/06:30pm 8.9 WNW 14 23 1018.3 - 0.0 - Partly cloudy 9 - - - -
01/06:00pm 9.0 WNW 15 22 1018.5 - 0.0 - Cloudy 7 - - - -
01/05:30pm 9.3 WNW 15 20 1018.3 - 0.0 - Partly cloudy 10 - - - -
01/05:00pm 9.2 WNW 12 18 1018.5 - 0.0 - Partly cloudy 10 - - - -
01/04:30pm 9.3 W 13 18 1018.5 - 0.0 - Partly cloudy 10 - - - -
01/04:00pm 9.9 W 15 19 1018.4 - 0.0 - Partly cloudy 10 - - - -
01/03:30pm 9.8 W 14 19 1018.5 - 0.0 - Partly cloudy 10 - - - -
01/03:00pm 10.4 W 14 20 1018.8 - 0.0 - Cloudy 10 - - - -
01/02:30pm 10.1 W 15 20 1018.6 - 0.0 - Partly cloudy 10 - - - -
01/02:00pm 11.0 W 15 22 1018.4 - 0.0 - Partly cloudy 10 - - - -
01/01:30pm 9.6 W 15 20 1018.5 - 0.0 - Partly cloudy 10 - - - -
01/01:00pm 10.9 W 16 23 1018.9 - 0.0 - Partly cloudy 10 - - - -
01/12:30pm 10.5 WSW 15 22 1018.7 - 0.0 - Partly cloudy 10 - - - -
01/12:00pm 11.9 W 14 18 1018.4 - 0.0 - Mostly clear 10 - - - -
01/11:30am 11.0 W 15 20 1018.4 - 0.0 - Partly cloudy 10 - - - -
01/11:00am 10.7 W 15 22 1018.3 - 0.0 - Partly cloudy 10 - - - -
01/10:30am 10.3 W 16 21 1018.2 - 0.0 - Partly cloudy 10 - - - -
01/10:00am 10.1 W 15 21 1018.1 - 0.0 - - 10 - - - -
01/09:30am 8.4 SSW 9 13 1018.0 - 0.0 - Partly cloudy 10 - - - -
01/09:12am 7.7 SW 18 28 1017.9 - 0.0 - Partly cloudy 10 - - - -
01/09:00am 8.0 WSW 17 23 1017.6 - 21.8 - Cloudy 10 - - - -
01/08:30am 8.2 SW 13 19 1017.0 - 21.8 - Partly cloudy 10 - - - -
01/08:00am 9.2 WSW 6 13 1016.7 - 21.8 - Partly cloudy 9 - - - -
01/07:30am 8.7 W 17 24 1016.4 - 21.6 - Partly cloudy 10 - - - -
01/07:14am 8.6 WSW 15 24 1015.9 - 21.6 - Partly cloudy 10 - - - -
01/07:00am 8.1 SW 8 14 1015.7 - 21.6 - Partly cloudy 10 - - - -
01/06:30am 8.0 WSW 9 13 1015.0 - 21.6 - Partly cloudy 10 - - - -
01/06:00am 7.9 WSW 13 19 1014.4 - 21.6 - Mostly clear 10 - - - -
01/05:30am 8.0 SW 14 21 1013.6 - 21.6 - Partly cloudy 10 - - - -
01/05:00am 8.0 SW 15 21 1012.7 - 21.6 - Partly cloudy 10 - - - -
01/04:30am 8.0 SW 15 21 1012.2 - 21.6 - Partly cloudy 10 - - - -
01/04:00am 6.9 SSW 13 19 1011.7 - 21.6 - Partly cloudy 10 - - - -
01/03:30am 6.3 SW 8 11 1011.3 - 21.6 - Partly cloudy 10 - - - -
01/03:02am 7.6 WSW 15 25 1010.8 - 21.4 - Partly cloudy 10 - - - -
01/03:00am 7.5 SW 13 24 1010.7 - 21.4 Recent precip. Cloudy 10 - - - -
01/02:44am 6.7 SW 14 23 1010.4 - 21.4 - Partly cloudy 10 - - - -
01/02:30am 6.3 SW 15 24 1010.3 - 21.4 - Partly cloudy 5 - - - -
01/02:29am 6.4 SW 14 24 1010.3 - 21.4 - Partly cloudy 5 - - - -
01/02:00am 6.9 SW 17 24 1009.8 - 20.6 - Partly cloudy 10 - - - -
01/01:49am 7.0 WSW 15 25 1009.6 - 20.6 - Partly cloudy 10 - - - -
01/01:36am 5.5 SW 8 11 1009.4 - 20.6 - Partly cloudy 10 - - - -
01/01:30am 5.7 SW 9 11 1009.4 - 20.6 - Partly cloudy 10 - - - -
01/01:20am 5.7 SW 20 30 1009.5 - 20.6 - Partly cloudy 5 - - - -
01/01:18am 6.1 SW 23 30 1009.7 - 20.6 - Partly cloudy 5 - - - -
01/01:17am 6.6 WSW 25 30 1009.7 - 20.2 - Partly cloudy 7 - - - -
01/01:00am 7.5 SW 14 20 1009.0 - 19.4 - Partly cloudy 10 - - - -
01/12:30am 8.2 WSW 16 24 1008.7 - 19.4 - Partly cloudy 10 - - - -
01/12:25am 8.1 WSW 15 24 1008.5 - 19.4 - Partly cloudy 10 - - - -
01/12:00am 7.0 SSW 8 14 1007.9 - 19.4 - Mostly cloudy 10 - - - -
 
Date/Time
EST
Temp

°C
Wind Pressure Rain
since 9am
mm
Weather Cloud Vis
km
Sea
Height
m
Swell
Dir
 
Speed
knots
Gust
knots
hPa Trend Height
m
Period
s
Dir
30/11:30pm 7.6 WSW 17 22 1007.2 - 19.4 - Partly cloudy 10 - - - -
30/11:01pm 6.8 SSW 18 28 1007.0 - 19.4 - Partly cloudy 10 - - - -
30/11:00pm 6.9 SSW 19 28 1007.0 - 19.4 - Partly cloudy 10 - - - -
30/10:55pm 7.2 SW 20 27 1006.9 - 19.4 - Partly cloudy 10 - - - -
30/10:49pm 7.8 WSW 18 28 1006.6 - 19.4 - Partly cloudy 10 - - - -
30/10:30pm 8.1 WSW 17 23 1006.1 - 19.4 - Partly cloudy 10 - - - -
30/10:24pm 7.6 WSW 15 23 1006.1 - 19.4 - Partly cloudy 10 - - - -
30/10:00pm 6.3 SW 9 13 1005.9 - 19.4 - Partly cloudy 8 - - - -
30/09:54pm 6.3 SW 11 20 1005.9 - 19.4 - Partly cloudy 9 - - - -
30/09:39pm 6.0 WSW 18 25 1005.8 - 19.4 - Partly cloudy 5 - - - -
30/09:37pm 5.9 WSW 19 25 1005.8 - 19.4 - Partly cloudy 6 - - - -
30/09:30pm 6.6 WSW 9 13 1005.3 - 18.6 - Partly cloudy 10 - - - -
30/09:24pm 6.5 WSW 9 13 1005.0 - 18.6 - Partly cloudy 10 - - - -
30/09:06pm 5.5 WSW 23 30 1005.0 - 18.4 - Partly cloudy 5 - - - -
30/09:04pm 6.1 WSW 23 29 1005.0 - 18.2 - Partly cloudy 7 - - - -
30/09:00pm 6.1 SSW 5 7 1004.7 - 18.2 - Cloudy 10 - - - -
30/08:30pm 6.2 SW 10 15 1004.7 - 18.2 - Partly cloudy 10 - - - -
30/08:00pm 6.5 WSW 14 20 1004.1 - 18.2 - Partly cloudy 10 - - - -
30/07:30pm 6.4 WSW 14 22 1003.5 - 18.2 - Partly cloudy 10 - - - -
30/07:00pm 6.5 SW 17 24 1002.6 - 18.2 - Partly cloudy 10 - - - -
30/06:30pm 6.9 WSW 17 26 1001.7 - 18.0 - Partly cloudy 10 - - - -
30/06:17pm 6.8 WSW 15 25 1001.4 - 18.0 - Partly cloudy 9 - - - -
30/06:00pm 6.7 WSW 12 20 1001.2 - 18.0 - Cloudy 8 - - - -
30/05:30pm 7.4 WSW 15 19 1001.0 - 18.0 - Partly cloudy 10 - - - -
30/05:00pm 6.1 WSW 13 18 1000.5 - 18.0 - Partly cloudy 10 - - - -
30/04:30pm 5.9 WSW 13 19 999.7 - 17.6 - Partly cloudy 10 - - - -
30/04:14pm 5.7 WSW 19 29 998.9 - 17.6 - Partly cloudy 8 - - - -
30/04:05pm 6.0 WSW 18 28 998.8 - 17.6 - Partly cloudy 6 - - - -
30/04:00pm 6.1 WSW 19 28 998.8 - 17.4 - Partly cloudy 5 - - - -
30/03:39pm 6.7 W 18 29 998.0 - 16.8 - Partly cloudy 5 - - - -
30/03:37pm 6.8 W 18 25 998.0 - 16.8 - Partly cloudy 5 - - - -
30/03:30pm 6.6 W 16 23 997.7 - 16.4 - Partly cloudy 7 - - - -
30/03:13pm 6.6 W 20 27 997.1 - 16.2 - Partly cloudy 7 - - - -
30/03:00pm 6.7 W 19 26 996.8 - 16.0 Rain Cloudy 5 - - - -
30/02:48pm 6.9 WSW 17 27 996.5 - 15.8 - Partly cloudy 4 - - - -
30/02:38pm 6.7 W 20 26 996.6 - 15.2 - Partly cloudy 5 - - - -
30/02:37pm 6.9 W 20 26 996.5 - 15.2 - Partly cloudy 6 - - - -
30/02:32pm 8.1 WNW 18 30 996.4 - 15.0 - Partly cloudy 10 - - - -
30/02:30pm 8.1 WNW 17 24 996.2 - 15.0 - Partly cloudy 10 - - - -
30/02:15pm 8.3 W 12 17 996.1 - 15.0 - Partly cloudy 8 - - - -
30/02:12pm 8.3 W 11 17 996.1 - 15.0 - Partly cloudy 7 - - - -
30/02:00pm 8.4 WNW 13 18 996.1 - 15.0 - Partly cloudy 5 - - - -
30/01:33pm 8.4 NNW 9 12 995.8 - 13.8 - Partly cloudy 5 - - - -
30/01:30pm 8.3 NNW 9 12 995.9 - 13.6 - Partly cloudy 7 - - - -
30/01:27pm 8.4 NNW 9 13 995.9 - 13.6 - Partly cloudy 7 - - - -
30/01:18pm 8.3 NW 8 10 996.1 - 13.6 - Partly cloudy 7 - - - -
30/01:07pm 8.1 NNW 9 13 996.0 - 13.6 - Partly cloudy 6 - - - -
30/01:00pm 8.0 NNW 10 13 996.1 - 13.4 - Partly cloudy 6 - - - -
30/12:50pm 8.1 NNW 9 12 996.3 - 13.4 - Partly cloudy 4 - - - -
30/12:30pm 7.7 NW 11 16 996.8 - 12.2 - Partly cloudy 5 - - - -
30/12:24pm 7.5 WNW 12 18 996.8 - 11.8 - Partly cloudy 5 - - - -
30/12:14pm 7.7 WNW 12 16 996.9 - 11.4 - Partly cloudy 4 - - - -
30/12:13pm 7.7 WNW 12 16 996.9 - 11.0 - Partly cloudy 4 - - - -
30/12:03pm 7.9 WNW 10 13 996.8 - 10.4 - Partly cloudy 4 - - - -
30/12:00pm 7.7 WNW 10 12 996.9 - 10.0 Rain Cloudy 4 - - - -
30/11:35am 7.4 NNW 5 7 996.5 - 8.0 - Partly cloudy 5 - - - -
30/11:30am 7.4 WNW 10 17 996.7 - 7.4 - Partly cloudy 5 - - - -
30/11:00am 7.5 WSW 13 18 997.2 - 4.6 - Partly cloudy 2 - - - -
30/10:41am 8.0 WSW 11 16 996.6 - 1.4 - Partly cloudy 5 - - - -
30/10:30am 8.5 W 9 12 996.9 - 1.2 - Cloudy 7 - - - -
30/10:03am 8.5 W 11 13 997.5 - 1.2 - Partly cloudy 8 - - - -
30/10:00am 8.6 WSW 10 13 997.4 - 1.2 - Partly cloudy 7 - - - -
30/09:53am 8.8 W 17 22 997.6 - 1.2 - Partly cloudy 5 - - - -
30/09:34am 10.5 NNW 21 31 997.8 - 1.0 - Partly cloudy 5 - - - -
30/09:30am 10.4 NNW 22 31 997.8 - 1.0 - Partly cloudy 5 - - - -
30/09:00am 10.4 NNW 22 32 997.5 - 8.2 Rain Cloudy 3 - - - -
30/08:43am 10.1 N 20 31 997.7 - 7.2 - Partly cloudy 6 - - - -
30/08:41am 10.0 N 19 31 997.7 - 7.0 - Partly cloudy 5 - - - -
30/08:30am 9.7 N 19 28 997.9 - 6.8 - Partly cloudy 3 - - - -
30/08:27am 9.7 N 19 28 998.1 - 6.4 - Partly cloudy 3 - - - -
30/08:15am 9.7 N 16 28 998.4 - 5.2 - Partly cloudy 5 - - - -
30/08:00am 9.4 N 16 24 998.4 - 4.0 - Partly cloudy 5 - - - -
30/07:30am 9.7 N 16 24 998.5 - 2.4 - Partly cloudy 4 - - - -
30/07:23am 10.0 N 17 26 998.6 - 1.6 - Partly cloudy 5 - - - -
30/07:00am 11.1 N 18 29 998.8 - 1.0 - Partly cloudy 10 - - - -
30/06:31am 11.0 N 19 30 999.4 - 1.0 - Partly cloudy 10 - - - -
30/06:30am 11.0 N 18 27 999.4 - 1.0 - Cloudy 10 - - - -
30/06:00am 10.7 N 19 28 999.6 - 1.0 - Cloudy 10 - - - -
30/05:45am 10.6 N 18 30 999.8 - 1.0 - Partly cloudy 10 - - - -
30/05:30am 10.5 N 19 27 1000.1 - 1.0 - Partly cloudy 10 - - - -
30/05:22am 10.5 N 18 28 1000.2 - 1.0 - Partly cloudy 10 - - - -
30/05:00am 10.6 N 19 26 1000.3 - 1.0 - Cloudy 10 - - - -
30/04:30am 10.4 N 16 26 1000.8 - 1.0 - Partly cloudy 10 - - - -
30/04:28am 10.4 N 16 26 1000.8 - 1.0 - Partly cloudy 10 - - - -
30/04:00am 10.4 N 18 24 1001.5 - 1.0 - Cloudy 10 - - - -
30/03:44am 10.3 N 16 26 1001.7 - 1.0 - Cloudy 10 - - - -
30/03:30am 10.4 N 17 24 1002.0 - 1.0 - Cloudy 10 - - - -
30/03:00am 10.2 N 16 23 1002.4 - 1.0 - Mostly cloudy 10 - - - -
30/02:30am 10.1 N 15 22 1002.7 - 1.0 - Cloudy 10 - - - -
30/02:00am 10.1 N 15 20 1003.5 - 1.0 - Cloudy 10 - - - -
30/01:30am 10.4 N 19 25 1004.2 - 1.0 - Partly cloudy 10 - - - -
30/01:00am 9.9 N 17 22 1004.6 - 1.0 - Partly cloudy 10 - - - -
30/12:30am 10.1 N 18 26 1005.1 - 1.0 - Partly cloudy 8 - - - -
30/12:06am 9.7 N 15 25 1005.4 - 1.0 - Partly cloudy 10 - - - -
30/12:00am 9.5 N 15 22 1005.4 - 1.0 - Cloudy 9 - - - -
 
Date/Time
EST
Temp

°C
Wind Pressure Rain
since 9am
mm
Weather Cloud Vis
km
Sea
Height
m
Swell
Dir
 
Speed
knots
Gust
knots
hPa Trend Height
m
Period
s
Dir
29/11:42pm 9.4 N 17 27 1005.7 - 1.0 - Partly cloudy 9 - - - -
29/11:30pm 9.3 N 15 21 1005.9 - 1.0 - Partly cloudy 9 - - - -
29/11:00pm 9.6 NW 18 26 1006.4 - 1.0 - Partly cloudy 7 - - - -
29/10:49pm 9.4 NW 18 24 1006.5 - 1.0 - Partly cloudy 8 - - - -
29/10:31pm 9.7 NNW 19 32 1006.9 - 1.0 - Partly cloudy 5 - - - -
29/10:30pm 10.3 NNW 18 26 1006.9 - 1.0 - Partly cloudy 5 - - - -
29/10:12pm 10.1 N 13 19 1006.5 - 1.0 - Partly cloudy 5 - - - -
29/10:00pm 9.9 NNW 13 20 1006.6 - 1.0 - Partly cloudy 6 - - - -
29/09:54pm 9.7 NNW 15 20 1006.8 - 1.0 - Partly cloudy 7 - - - -
29/09:31pm 9.8 NNW 15 27 1006.7 - 0.8 - Partly cloudy 5 - - - -
29/09:30pm 9.7 NNW 14 27 1006.8 - 0.8 - Partly cloudy 5 - - - -
29/09:18pm 9.7 N 13 17 1006.8 - 0.8 - Partly cloudy 5 - - - -
29/09:00pm 9.4 N 16 21 1006.9 - 0.8 Recent precip. Cloudy 7 - - - -
29/08:57pm 9.4 N 17 23 1007.0 - 0.8 - Partly cloudy 8 - - - -
29/08:38pm 9.6 N 15 25 1006.9 - 0.8 - Partly cloudy 4 - - - -
29/08:35pm 9.6 N 15 20 1006.8 - 0.4 - Partly cloudy 5 - - - -
29/08:30pm 9.6 N 15 21 1006.8 - 0.4 - Partly cloudy 6 - - - -
29/08:26pm 9.5 N 16 23 1006.9 - 0.4 - Partly cloudy 7 - - - -
29/08:15pm 9.4 N 17 27 1006.9 - 0.4 - Partly cloudy 5 - - - -
29/08:00pm 9.8 N 16 24 1006.9 - 0.4 - Partly cloudy 5 - - - -
29/07:30pm 10.4 N 19 26 1006.8 - 0.4 - Partly cloudy 8 - - - -
29/07:00pm 10.1 N 18 31 1006.4 - 0.4 - Cloudy 7 - - - -
29/06:56pm 10.1 N 16 31 1006.5 - 0.4 - Cloudy 6 - - - -
29/06:41pm 9.8 N 17 22 1006.5 - 0.4 - Partly cloudy 8 - - - -
29/06:30pm 9.7 NNW 21 33 1006.4 - 0.4 - Partly cloudy 5 - - - -
29/06:23pm 10.1 NNW 22 33 1006.4 - 0.2 - Partly cloudy 5 - - - -
29/06:00pm 11.0 NNW 20 30 1006.2 - 0.2 - Cloudy 9 - - - -
29/05:52pm 11.1 NNW 19 29 1006.3 - 0.2 - Partly cloudy 9 - - - -
29/05:30pm 11.6 NNW 20 29 1006.4 - 0.2 - Partly cloudy 9 - - - -
29/05:06pm 11.2 NNW 21 32 1006.3 - 0.2 - Partly cloudy 9 - - - -
29/05:00pm 11.1 NNW 20 29 1006.3 - 0.2 - Partly cloudy 9 - - - -
29/04:30pm 10.6 NNW 21 28 1006.5 - 0.2 - Partly cloudy 9 - - - -
29/04:25pm 10.0 NNW 21 28 1006.6 - 0.2 - Partly cloudy 8 - - - -
29/04:07pm 9.6 NNW 29 40 1006.7 - 0.2 - Partly cloudy 5 - - - -
29/04:00pm 11.4 NNW 23 35 1006.2 - 0.2 - Partly cloudy 10 - - - -
29/03:30pm 12.4 NNW 21 33 1006.1 - 0.2 - Partly cloudy 9 - - - -
29/03:25pm 12.8 NNW 20 33 1006.0 - 0.2 - Partly cloudy 8 - - - -
29/03:00pm 12.1 NNW 23 31 1006.4 - 0.2 - Cloudy 10 - - - -
29/02:33pm 13.8 NNW 23 34 1006.4 - 0.2 - Partly cloudy 10 - - - -
29/02:30pm 13.3 NNW 23 32 1006.4 - 0.2 - Partly cloudy 10 - - - -
29/02:04pm 12.9 NNW 21 31 1006.9 - 0.2 - Partly cloudy 9 - - - -
29/02:00pm 12.4 NNW 22 31 1006.9 - 0.2 - Partly cloudy 9 - - - -
29/01:38pm 11.7 NW 21 37 1007.1 - 0.2 - Partly cloudy 9 - - - -
29/01:30pm 10.6 NW 22 29 1007.2 - 0.2 - Partly cloudy 7 - - - -
29/01:16pm 12.0 NNW 20 31 1007.1 - 0.2 - Partly cloudy 9 - - - -
29/01:00pm 12.8 NNW 19 25 1007.2 - 0.2 - Partly cloudy 10 - - - -
29/12:37pm 10.4 NNW 23 33 1007.5 - 0.2 - Partly cloudy 6 - - - -
29/12:30pm 10.2 NNW 24 33 1007.4 - 0.2 - Partly cloudy 8 - - - -
29/12:26pm 11.7 NNW 21 31 1007.3 - 0.2 - Partly cloudy 10 - - - -
29/12:00pm 13.4 NNW 21 28 1007.2 - 0.2 Recent precip. Mostly clear 10 - - - -
29/11:30am 13.2 NW 20 27 1007.4 - 0.2 - Partly cloudy 10 - - - -
29/11:17am 12.8 NNW 19 29 1007.3 - 0.2 - Partly cloudy 10 - - - -
29/11:00am 12.8 NW 19 24 1007.3 - 0.0 - Partly cloudy 10 - - - -
29/10:30am 12.8 NNW 19 25 1007.2 - 0.0 - Partly cloudy 10 - - - -
29/10:00am 12.4 NW 15 23 1007.0 - 0.0 - Partly cloudy 9 - - - -
29/09:30am 10.7 NW 16 21 1007.2 - 0.0 - Partly cloudy 10 - - - -
29/09:00am 11.2 NW 19 24 1007.1 - 8.6 - - 10 - - - -
29/08:34am 10.1 NW 16 28 1006.7 - 8.6 - Partly cloudy 9 - - - -
29/08:30am 10.2 NW 16 23 1006.7 - 8.6 - Partly cloudy 9 - - - -
29/08:00am 10.4 WNW 16 21 1006.3 - 8.6 - Partly cloudy 10 - - - -
29/07:30am 9.7 WNW 14 20 1005.9 - 8.6 - Partly cloudy 10 - - - -
29/07:00am 9.4 WNW 15 21 1005.7 - 8.6 - Partly cloudy 10 - - - -
29/06:30am 9.2 WNW 14 21 1005.1 - 8.6 - Partly cloudy 10 - - - -
29/06:00am 9.0 WNW 16 23 1004.3 - 8.6 - Cloudy 10 - - - -
29/05:30am 9.0 W 17 23 1003.6 - 8.6 - Partly cloudy 10 - - - -
29/05:00am 8.6 WNW 13 21 1003.1 - 8.6 - Partly cloudy 10 - - - -
29/04:30am 8.5 WNW 15 23 1002.9 - 8.6 - Partly cloudy 9 - - - -

Other Formats:

Comma delimited format used in spreadsheet applications
http://www.bom.gov.au/fwo/IDT60701/IDT60701.94956.axf

JavaScript Object Notation format (JSON) in row-major order
http://www.bom.gov.au/fwo/IDT60701/IDT60701.94956.json